BSMN22 YJBY-YSHW
Flight info
| Callsign | BSMN22 |
|---|---|
| Flight time | 0h 33m |
| Altitude | 4500 |
| Route | DCT DCT YJBY NWA YSHW DCT |
| Aircraft | H60/M-SDFGRY/LB1 |
Departure
| Time | 2026-05-07 09:21 |
|---|---|
| Airport | Jervis Bay Airport (YJBY) |
Arrival
| Time | 2026-05-07 09:54 |
|---|---|
| Airport | Holsworthy (Military) Airport (YSHW) |
| Time | Latitude | Longitude | Altitude | Speed | Heading |
|---|---|---|---|---|---|
| 2026-05-07 08:50 | -35.14529 | 150.70041 | 204 ft | 0 kts | 0° |
| 2026-05-07 09:14 | -35.14527 | 150.70053 | 208 ft | 3 kts | 124° |
| 2026-05-07 09:15 | -35.14556 | 150.70088 | 206 ft | 5 kts | 163° |
| 2026-05-07 09:15 | -35.14594 | 150.70088 | 205 ft | 5 kts | 185° |
| 2026-05-07 09:15 | -35.14612 | 150.70073 | 209 ft | 2 kts | 277° |
| 2026-05-07 09:19 | -35.14609 | 150.70036 | 252 ft | 12 kts | 279° |
| 2026-05-07 09:19 | -35.14583 | 150.69703 | 430 ft | 76 kts | 273° |
| 2026-05-07 09:20 | -35.14520 | 150.68867 | 465 ft | 105 kts | 269° |
| 2026-05-07 09:20 | -35.14941 | 150.68221 | 599 ft | 108 kts | 193° |
| 2026-05-07 09:20 | -35.15697 | 150.68542 | 568 ft | 134 kts | 127° |
| 2026-05-07 09:20 | -35.15918 | 150.69626 | 639 ft | 139 kts | 70° |
| 2026-05-07 09:21 | -35.15523 | 150.70795 | 609 ft | 153 kts | 67° |
| 2026-05-07 09:21 | -35.15051 | 150.71923 | 788 ft | 145 kts | 65° |
| 2026-05-07 09:21 | -35.14584 | 150.73061 | 989 ft | 155 kts | 65° |
| 2026-05-07 09:21 | -35.14114 | 150.74262 | 1080 ft | 158 kts | 66° |
| 2026-05-07 09:22 | -35.13432 | 150.75372 | 1009 ft | 171 kts | 51° |
| 2026-05-07 09:22 | -35.12621 | 150.76532 | 1244 ft | 188 kts | 49° |
| 2026-05-07 09:22 | -35.11743 | 150.77755 | 1307 ft | 200 kts | 49° |
| 2026-05-07 09:22 | -35.10627 | 150.78738 | 1034 ft | 197 kts | 21° |
| 2026-05-07 09:23 | -35.09352 | 150.79174 | 1030 ft | 185 kts | 11° |
| 2026-05-07 09:23 | -35.08089 | 150.79540 | 1096 ft | 187 kts | 9° |
| 2026-05-07 09:23 | -35.06818 | 150.79873 | 1151 ft | 193 kts | 8° |
| 2026-05-07 09:23 | -35.05496 | 150.80071 | 1055 ft | 186 kts | 358° |
| 2026-05-07 09:24 | -35.04224 | 150.79926 | 1038 ft | 182 kts | 348° |
| 2026-05-07 09:24 | -35.02982 | 150.79781 | 1158 ft | 183 kts | 349° |
| 2026-05-07 09:24 | -35.01705 | 150.79615 | 1075 ft | 186 kts | 348° |
| 2026-05-07 09:24 | -35.00402 | 150.79500 | 922 ft | 183 kts | 348° |
| 2026-05-07 09:25 | -34.99228 | 150.79033 | 1028 ft | 176 kts | 334° |
| 2026-05-07 09:25 | -34.98039 | 150.78593 | 1066 ft | 179 kts | 338° |
| 2026-05-07 09:25 | -34.96828 | 150.78192 | 1133 ft | 183 kts | 339° |
| 2026-05-07 09:25 | -34.95555 | 150.78045 | 925 ft | 188 kts | 356° |
| 2026-05-07 09:26 | -34.94302 | 150.78378 | 1023 ft | 180 kts | 11° |
| 2026-05-07 09:26 | -34.93079 | 150.78658 | 1001 ft | 177 kts | 355° |
| 2026-05-07 09:26 | -34.92290 | 150.78444 | 953 ft | 168 kts | 340° |
| 2026-05-07 09:26 | -34.90768 | 150.77962 | 1118 ft | 175 kts | 341° |
| 2026-05-07 09:27 | -34.89579 | 150.77622 | 1096 ft | 174 kts | 341° |
| 2026-05-07 09:27 | -34.88794 | 150.77423 | 1094 ft | 173 kts | 343° |
| 2026-05-07 09:27 | -34.86589 | 150.76866 | 1737 ft | 148 kts | 340° |
| 2026-05-07 09:28 | -34.85506 | 150.76570 | 1800 ft | 168 kts | 339° |
| 2026-05-07 09:28 | -34.84351 | 150.76260 | 1846 ft | 173 kts | 341° |
| 2026-05-07 09:28 | -34.82694 | 150.76215 | 1635 ft | 193 kts | 6° |
| 2026-05-07 09:28 | -34.81840 | 150.76611 | 1475 ft | 198 kts | 20° |
| 2026-05-07 09:29 | -34.80720 | 150.77517 | 1402 ft | 193 kts | 36° |
| 2026-05-07 09:29 | -34.79679 | 150.78518 | 1491 ft | 192 kts | 40° |
| 2026-05-07 09:29 | -34.78714 | 150.79651 | 1439 ft | 195 kts | 51° |
| 2026-05-07 09:29 | -34.78337 | 150.81217 | 1307 ft | 186 kts | 85° |
| 2026-05-07 09:30 | -34.77593 | 150.82450 | 1415 ft | 190 kts | 33° |
| 2026-05-07 09:30 | -34.76429 | 150.83213 | 1331 ft | 189 kts | 17° |
| 2026-05-07 09:30 | -34.75210 | 150.83797 | 1314 ft | 190 kts | 12° |
| 2026-05-07 09:30 | -34.73959 | 150.84319 | 1290 ft | 188 kts | 11° |
| 2026-05-07 09:31 | -34.72739 | 150.84826 | 1333 ft | 187 kts | 12° |
| 2026-05-07 09:31 | -34.71486 | 150.85259 | 1329 ft | 190 kts | 6° |
| 2026-05-07 09:31 | -34.70172 | 150.85634 | 1122 ft | 196 kts | 4° |
| 2026-05-07 09:31 | -34.68843 | 150.85967 | 969 ft | 191 kts | 3° |
| 2026-05-07 09:32 | -34.67538 | 150.86084 | 810 ft | 189 kts | 354° |
| 2026-05-07 09:32 | -34.66240 | 150.86161 | 686 ft | 180 kts | 356° |
| 2026-05-07 09:32 | -34.65002 | 150.86271 | 751 ft | 180 kts | 359° |
| 2026-05-07 09:32 | -34.63754 | 150.86430 | 734 ft | 179 kts | 359° |
| 2026-05-07 09:33 | -34.62504 | 150.86606 | 752 ft | 182 kts | 1° |
| 2026-05-07 09:33 | -34.61301 | 150.87031 | 769 ft | 186 kts | 34° |
| 2026-05-07 09:33 | -34.60553 | 150.88308 | 792 ft | 192 kts | 68° |
| 2026-05-07 09:33 | -34.60010 | 150.89830 | 637 ft | 200 kts | 70° |
| 2026-05-07 09:34 | -34.59052 | 150.90552 | 618 ft | 148 kts | 343° |
| 2026-05-07 09:34 | -34.58255 | 150.89862 | 641 ft | 148 kts | 308° |
| 2026-05-07 09:34 | -34.57558 | 150.88958 | 883 ft | 146 kts | 307° |
| 2026-05-07 09:34 | -34.57052 | 150.87841 | 798 ft | 152 kts | 295° |
| 2026-05-07 09:35 | -34.56584 | 150.86708 | 930 ft | 151 kts | 295° |
| 2026-05-07 09:35 | -34.56097 | 150.85554 | 953 ft | 153 kts | 296° |
| 2026-05-07 09:35 | -34.55628 | 150.84438 | 1113 ft | 146 kts | 295° |
| 2026-05-07 09:35 | -34.55311 | 150.83256 | 1232 ft | 154 kts | 289° |
| 2026-05-07 09:36 | -34.54906 | 150.82017 | 1219 ft | 161 kts | 292° |
| 2026-05-07 09:36 | -34.54356 | 150.80810 | 1128 ft | 156 kts | 300° |
| 2026-05-07 09:36 | -34.53890 | 150.79726 | 878 ft | 134 kts | 287° |
| 2026-05-07 09:36 | -34.54079 | 150.78772 | 413 ft | 112 kts | 238° |
| 2026-05-07 09:37 | -34.54755 | 150.78462 | 182 ft | 98 kts | 180° |
| 2026-05-07 09:37 | -34.55303 | 150.78580 | 129 ft | 57 kts | 177° |
| 2026-05-07 09:37 | -34.55557 | 150.78633 | 82 ft | 23 kts | 176° |
| 2026-05-07 09:37 | -34.55886 | 150.78710 | 233 ft | 90 kts | 179° |
| 2026-05-07 09:38 | -34.56617 | 150.78878 | 404 ft | 106 kts | 176° |
| 2026-05-07 09:38 | -34.57186 | 150.79333 | 1111 ft | 116 kts | 119° |
| 2026-05-07 09:38 | -34.56962 | 150.80189 | 730 ft | 102 kts | 18° |
| 2026-05-07 09:38 | -34.56273 | 150.80343 | 833 ft | 120 kts | 354° |
| 2026-05-07 09:39 | -34.55360 | 150.80303 | 935 ft | 134 kts | 348° |
| 2026-05-07 09:39 | -34.54409 | 150.80179 | 1042 ft | 134 kts | 336° |
| 2026-05-07 09:39 | -34.53932 | 150.79470 | 684 ft | 103 kts | 286° |
| 2026-05-07 09:39 | -34.54131 | 150.78690 | 456 ft | 100 kts | 227° |
| 2026-05-07 09:40 | -34.54725 | 150.78456 | 222 ft | 91 kts | 171° |
| 2026-05-07 09:40 | -34.55396 | 150.78596 | 147 ft | 121 kts | 173° |
| 2026-05-07 09:40 | -34.56341 | 150.78819 | 193 ft | 147 kts | 173° |
| 2026-05-07 09:40 | -34.57267 | 150.79161 | 953 ft | 144 kts | 155° |
| 2026-05-07 09:41 | -34.57367 | 150.80449 | 675 ft | 168 kts | 63° |
| 2026-05-07 09:41 | -34.56514 | 150.81345 | 737 ft | 173 kts | 29° |
| 2026-05-07 09:41 | -34.55513 | 150.82278 | 628 ft | 186 kts | 28° |
| 2026-05-07 09:41 | -34.54546 | 150.83268 | 882 ft | 185 kts | 31° |
| 2026-05-07 09:42 | -34.53612 | 150.84388 | 1307 ft | 190 kts | 38° |
| 2026-05-07 09:42 | -34.52754 | 150.85549 | 2140 ft | 182 kts | 41° |
| 2026-05-07 09:42 | -34.51615 | 150.86038 | 2528 ft | 181 kts | 351° |
| 2026-05-07 09:42 | -34.50328 | 150.85845 | 2656 ft | 190 kts | 336° |
| 2026-05-07 09:43 | -34.48993 | 150.85634 | 2618 ft | 199 kts | 333° |
| 2026-05-07 09:43 | -34.47592 | 150.85480 | 2462 ft | 202 kts | 338° |
| 2026-05-07 09:43 | -34.46211 | 150.85390 | 2456 ft | 200 kts | 338° |
| 2026-05-07 09:43 | -34.44984 | 150.85293 | 2446 ft | 197 kts | 336° |
| 2026-05-07 09:44 | -34.43647 | 150.85215 | 2692 ft | 186 kts | 336° |
| 2026-05-07 09:44 | -34.42391 | 150.85211 | 3205 ft | 177 kts | 336° |
| 2026-05-07 09:44 | -34.41089 | 150.85202 | 3273 ft | 201 kts | 338° |
| 2026-05-07 09:44 | -34.39657 | 150.84962 | 2822 ft | 210 kts | 332° |
| 2026-05-07 09:45 | -34.38249 | 150.84646 | 2549 ft | 202 kts | 330° |
| 2026-05-07 09:45 | -34.36943 | 150.84258 | 2419 ft | 181 kts | 316° |
| 2026-05-07 09:45 | -34.36031 | 150.83357 | 2495 ft | 163 kts | 304° |
| 2026-05-07 09:45 | -34.35123 | 150.82468 | 2495 ft | 176 kts | 308° |
| 2026-05-07 09:46 | -34.34101 | 150.81549 | 2109 ft | 185 kts | 313° |
| 2026-05-07 09:46 | -34.32924 | 150.80920 | 1972 ft | 200 kts | 335° |
| 2026-05-07 09:46 | -34.31554 | 150.80709 | 1732 ft | 189 kts | 334° |
| 2026-05-07 09:46 | -34.30257 | 150.80574 | 1884 ft | 191 kts | 342° |
| 2026-05-07 09:47 | -34.28885 | 150.80822 | 1286 ft | 202 kts | 4° |
| 2026-05-07 09:47 | -34.27563 | 150.80653 | 1210 ft | 191 kts | 334° |
| 2026-05-07 09:47 | -34.26300 | 150.80266 | 1089 ft | 180 kts | 322° |
| 2026-05-07 09:47 | -34.25234 | 150.79674 | 1387 ft | 183 kts | 339° |
| 2026-05-07 09:48 | -34.24032 | 150.80024 | 1335 ft | 190 kts | 42° |
| 2026-05-07 09:48 | -34.23156 | 150.81310 | 1354 ft | 209 kts | 63° |
| 2026-05-07 09:48 | -34.22673 | 150.82836 | 1930 ft | 185 kts | 71° |
| 2026-05-07 09:48 | -34.21717 | 150.84005 | 1684 ft | 207 kts | 28° |
| 2026-05-07 09:49 | -34.20446 | 150.84872 | 1653 ft | 213 kts | 24° |
| 2026-05-07 09:49 | -34.19150 | 150.85800 | 1496 ft | 219 kts | 24° |
| 2026-05-07 09:49 | -34.17906 | 150.86679 | 1623 ft | 206 kts | 24° |
| 2026-05-07 09:49 | -34.16648 | 150.87614 | 1650 ft | 219 kts | 17° |
| 2026-05-07 09:50 | -34.15337 | 150.88618 | 1342 ft | 224 kts | 16° |
| 2026-05-07 09:50 | -34.14047 | 150.89566 | 1286 ft | 212 kts | 14° |
| 2026-05-07 09:50 | -34.12739 | 150.90408 | 1202 ft | 213 kts | 11° |
| 2026-05-07 09:50 | -34.11377 | 150.91077 | 1119 ft | 210 kts | 6° |
| 2026-05-07 09:51 | -34.10034 | 150.91723 | 1219 ft | 206 kts | 5° |
| 2026-05-07 09:51 | -34.08667 | 150.92336 | 1145 ft | 211 kts | 5° |
| 2026-05-07 09:51 | -34.07277 | 150.92858 | 1058 ft | 206 kts | 0° |
| 2026-05-07 09:51 | -34.05907 | 150.93350 | 899 ft | 211 kts | 1° |
| 2026-05-07 09:52 | -34.04522 | 150.93829 | 690 ft | 196 kts | 2° |
| 2026-05-07 09:52 | -34.03338 | 150.93946 | 903 ft | 175 kts | 343° |
| 2026-05-07 09:52 | -34.02092 | 150.94096 | 641 ft | 173 kts | 359° |
| 2026-05-07 09:52 | -34.00973 | 150.94387 | 541 ft | 165 kts | 18° |
| 2026-05-07 09:53 | -34.00099 | 150.95292 | 486 ft | 161 kts | 27° |
| 2026-05-07 09:53 | -33.99432 | 150.94973 | 542 ft | 111 kts | 288° |
| 2026-05-07 09:53 | -33.99701 | 150.94486 | 489 ft | 97 kts | 169° |
| 2026-05-07 09:53 | -34.00228 | 150.95094 | 594 ft | 125 kts | 105° |
| 2026-05-07 09:54 | -34.00509 | 150.95940 | 576 ft | 92 kts | 79° |
| 2026-05-07 09:54 | -34.00141 | 150.96153 | 471 ft | 67 kts | 302° |
| 2026-05-07 09:54 | -33.99871 | 150.95749 | 358 ft | 54 kts | 294° |
| 2026-05-07 09:54 | -33.99739 | 150.95523 | 284 ft | 14 kts | 295° |
| 2026-05-07 09:55 | -33.99719 | 150.95489 | 259 ft | 3 kts | 296° |
| 2026-05-07 09:55 | -33.99699 | 150.95466 | 249 ft | 5 kts | 291° |
| 2026-05-07 09:55 | -33.99664 | 150.95391 | 250 ft | 14 kts | 303° |
| 2026-05-07 09:55 | -33.99615 | 150.95302 | 252 ft | 11 kts | 323° |
| 2026-05-07 09:56 | -33.99558 | 150.95322 | 252 ft | 8 kts | 37° |
| 2026-05-07 09:56 | -33.99557 | 150.95345 | 251 ft | 3 kts | 122° |
| 2026-05-07 09:56 | -33.99563 | 150.95357 | 251 ft | 0 kts | 126° |
| 2026-05-07 10:27 | -33.99573 | 150.95374 | 248 ft | 5 kts | 134° |
| 2026-05-07 10:27 | -33.99596 | 150.95371 | 249 ft | 0 kts | 212° |
| 2026-05-07 10:28 | -33.99612 | 150.95358 | 249 ft | 8 kts | 209° |
| 2026-05-07 10:29 | -33.99630 | 150.95323 | 249 ft | 4 kts | 282° |
| 2026-05-07 10:29 | -33.99617 | 150.95294 | 250 ft | 3 kts | 302° |
| 2026-05-07 10:29 | -33.99606 | 150.95280 | 261 ft | 8 kts | 300° |
| 2026-05-07 10:30 | -33.99400 | 150.94854 | 388 ft | 79 kts | 296° |
| 2026-05-07 10:30 | -33.99625 | 150.94152 | 509 ft | 110 kts | 225° |
| 2026-05-07 10:30 | -34.00448 | 150.93775 | 474 ft | 136 kts | 198° |
| 2026-05-07 10:30 | -34.01344 | 150.93541 | 534 ft | 126 kts | 199° |
| 2026-05-07 10:31 | -34.02177 | 150.93314 | 707 ft | 127 kts | 200° |
| 2026-05-07 10:31 | -34.03036 | 150.93005 | 835 ft | 130 kts | 202° |
| 2026-05-07 10:31 | -34.03944 | 150.92688 | 844 ft | 140 kts | 203° |
| 2026-05-07 10:31 | -34.04853 | 150.92253 | 771 ft | 137 kts | 208° |
| 2026-05-07 10:32 | -34.05662 | 150.91745 | 943 ft | 129 kts | 215° |
| 2026-05-07 10:32 | -34.06473 | 150.91186 | 897 ft | 139 kts | 211° |
| 2026-05-07 10:32 | -34.07328 | 150.90675 | 933 ft | 135 kts | 212° |
| 2026-05-07 10:32 | -34.08169 | 150.90198 | 1030 ft | 134 kts | 208° |
| 2026-05-07 10:33 | -34.09100 | 150.89968 | 1048 ft | 138 kts | 193° |
| 2026-05-07 10:33 | -34.10064 | 150.89844 | 1069 ft | 141 kts | 187° |
| 2026-05-07 10:33 | -34.11024 | 150.89779 | 1115 ft | 137 kts | 184° |
| 2026-05-07 10:33 | -34.11996 | 150.89722 | 1092 ft | 140 kts | 185° |
| 2026-05-07 10:34 | -34.12919 | 150.89665 | 1224 ft | 128 kts | 185° |
| 2026-05-07 10:34 | -34.13849 | 150.89607 | 1221 ft | 135 kts | 185° |
| 2026-05-07 10:34 | -34.14797 | 150.89560 | 1418 ft | 145 kts | 185° |
| 2026-05-07 10:34 | -34.15855 | 150.89519 | 1418 ft | 151 kts | 184° |
| 2026-05-07 10:35 | -34.16900 | 150.89497 | 1486 ft | 155 kts | 184° |
| 2026-05-07 10:35 | -34.17966 | 150.89500 | 1549 ft | 154 kts | 182° |
| 2026-05-07 10:35 | -34.19067 | 150.89471 | 1510 ft | 157 kts | 184° |
| 2026-05-07 10:35 | -34.20123 | 150.89439 | 1711 ft | 151 kts | 178° |
| 2026-05-07 10:36 | -34.21214 | 150.89381 | 1645 ft | 159 kts | 180° |
| 2026-05-07 10:36 | -34.22306 | 150.89339 | 1741 ft | 153 kts | 178° |
| 2026-05-07 10:36 | -34.23376 | 150.89290 | 1805 ft | 159 kts | 180° |
| 2026-05-07 10:36 | -34.24511 | 150.89266 | 1654 ft | 166 kts | 179° |
| 2026-05-07 10:37 | -34.25636 | 150.89197 | 1727 ft | 154 kts | 179° |
| 2026-05-07 10:37 | -34.26718 | 150.89278 | 1841 ft | 158 kts | 172° |
| 2026-05-07 10:37 | -34.27832 | 150.89392 | 1863 ft | 161 kts | 173° |
| 2026-05-07 10:37 | -34.28935 | 150.89563 | 1965 ft | 159 kts | 170° |
| 2026-05-07 10:38 | -34.30061 | 150.89805 | 1864 ft | 169 kts | 167° |
| 2026-05-07 10:38 | -34.31221 | 150.90043 | 1766 ft | 169 kts | 168° |
| 2026-05-07 10:38 | -34.32367 | 150.90403 | 1679 ft | 170 kts | 161° |
| 2026-05-07 10:38 | -34.33458 | 150.90785 | 1792 ft | 165 kts | 160° |
| 2026-05-07 10:39 | -34.34601 | 150.91173 | 1754 ft | 171 kts | 161° |
| 2026-05-07 10:39 | -34.35773 | 150.91562 | 1549 ft | 176 kts | 163° |
| 2026-05-07 10:39 | -34.36944 | 150.91820 | 1501 ft | 166 kts | 171° |
| 2026-05-07 10:39 | -34.38088 | 150.91659 | 1615 ft | 166 kts | 179° |
| 2026-05-07 10:40 | -34.39241 | 150.91389 | 1673 ft | 172 kts | 175° |
| 2026-05-07 10:40 | -34.40425 | 150.91163 | 1613 ft | 175 kts | 175° |
| 2026-05-07 10:40 | -34.41628 | 150.90984 | 1585 ft | 173 kts | 173° |
| 2026-05-07 10:40 | -34.42823 | 150.90864 | 1667 ft | 173 kts | 169° |
| 2026-05-07 10:41 | -34.44002 | 150.90461 | 1396 ft | 179 kts | 188° |
| 2026-05-07 10:41 | -34.45158 | 150.90100 | 1552 ft | 164 kts | 175° |
| 2026-05-07 10:41 | -34.46301 | 150.89986 | 1760 ft | 171 kts | 175° |
| 2026-05-07 10:41 | -34.47507 | 150.89905 | 1727 ft | 177 kts | 176° |
| 2026-05-07 10:42 | -34.48733 | 150.89782 | 1712 ft | 176 kts | 180° |
| 2026-05-07 10:42 | -34.49958 | 150.89617 | 1661 ft | 180 kts | 181° |
| 2026-05-07 10:42 | -34.51187 | 150.89381 | 1548 ft | 177 kts | 184° |
| 2026-05-07 10:42 | -34.52382 | 150.89093 | 1528 ft | 170 kts | 185° |
| 2026-05-07 10:43 | -34.53486 | 150.88765 | 1810 ft | 157 kts | 187° |
| 2026-05-07 10:43 | -34.54498 | 150.88388 | 2136 ft | 154 kts | 188° |
| 2026-05-07 10:43 | -34.55567 | 150.87964 | 2090 ft | 170 kts | 191° |
| 2026-05-07 10:43 | -34.56727 | 150.87545 | 1902 ft | 176 kts | 188° |
| 2026-05-07 10:44 | -34.57930 | 150.87187 | 1705 ft | 179 kts | 187° |
| 2026-05-07 10:44 | -34.59131 | 150.86845 | 1636 ft | 176 kts | 187° |
| 2026-05-07 10:44 | -34.60286 | 150.86508 | 1766 ft | 167 kts | 186° |
| 2026-05-07 10:44 | -34.61399 | 150.86161 | 1950 ft | 167 kts | 187° |
| 2026-05-07 10:45 | -34.62622 | 150.85918 | 1623 ft | 185 kts | 181° |
| 2026-05-07 10:45 | -34.63880 | 150.85752 | 1488 ft | 179 kts | 181° |
| 2026-05-07 10:45 | -34.65097 | 150.85550 | 1496 ft | 175 kts | 182° |
| 2026-05-07 10:45 | -34.66287 | 150.85326 | 1625 ft | 173 kts | 184° |
| 2026-05-07 10:46 | -34.67495 | 150.85080 | 1625 ft | 179 kts | 184° |
| 2026-05-07 10:46 | -34.68735 | 150.84815 | 1479 ft | 180 kts | 184° |
| 2026-05-07 10:46 | -34.69946 | 150.84539 | 1548 ft | 172 kts | 184° |
| 2026-05-07 10:46 | -34.71150 | 150.84307 | 1472 ft | 182 kts | 184° |
| 2026-05-07 10:47 | -34.72404 | 150.84108 | 1267 ft | 176 kts | 181° |
| 2026-05-07 10:47 | -34.73596 | 150.84004 | 1478 ft | 176 kts | 181° |
| 2026-05-07 10:47 | -34.74846 | 150.83817 | 1529 ft | 183 kts | 185° |
| 2026-05-07 10:47 | -34.76066 | 150.83385 | 1475 ft | 188 kts | 201° |
| 2026-05-07 10:48 | -34.76954 | 150.82239 | 597 ft | 177 kts | 230° |
| 2026-05-07 10:48 | -34.77498 | 150.80904 | 250 ft | 178 kts | 242° |
| 2026-05-07 10:48 | -34.78131 | 150.79653 | 218 ft | 172 kts | 226° |
| 2026-05-07 10:48 | -34.78987 | 150.78678 | 223 ft | 168 kts | 216° |
| 2026-05-07 10:49 | -34.79894 | 150.77780 | 281 ft | 171 kts | 214° |
| 2026-05-07 10:49 | -34.80882 | 150.76998 | 318 ft | 166 kts | 208° |
| 2026-05-07 10:49 | -34.81965 | 150.76441 | 310 ft | 172 kts | 199° |
| 2026-05-07 10:49 | -34.83081 | 150.75910 | 308 ft | 176 kts | 197° |
| 2026-05-07 10:50 | -34.84249 | 150.75489 | 327 ft | 172 kts | 193° |
| 2026-05-07 10:50 | -34.85455 | 150.75308 | 375 ft | 178 kts | 179° |
| 2026-05-07 10:50 | -34.86662 | 150.75286 | 454 ft | 175 kts | 176° |
| 2026-05-07 10:50 | -34.87827 | 150.75841 | 469 ft | 183 kts | 151° |
| 2026-05-07 10:51 | -34.88993 | 150.76493 | 482 ft | 182 kts | 153° |
| 2026-05-07 10:51 | -34.90164 | 150.77072 | 606 ft | 185 kts | 155° |
| 2026-05-07 10:51 | -34.91368 | 150.77609 | 615 ft | 181 kts | 156° |
| 2026-05-07 10:51 | -34.92547 | 150.78095 | 791 ft | 179 kts | 159° |
| 2026-05-07 10:52 | -34.93784 | 150.78162 | 889 ft | 175 kts | 177° |
| 2026-05-07 10:52 | -34.95021 | 150.78054 | 1003 ft | 179 kts | 182° |
| 2026-05-07 10:52 | -34.96266 | 150.77854 | 1088 ft | 181 kts | 186° |
| 2026-05-07 10:52 | -34.97498 | 150.77561 | 1215 ft | 177 kts | 190° |
| 2026-05-07 10:53 | -34.98695 | 150.77206 | 1339 ft | 181 kts | 192° |
| 2026-05-07 10:53 | -34.99920 | 150.76747 | 1087 ft | 189 kts | 196° |
| 2026-05-07 10:53 | -35.01146 | 150.76244 | 989 ft | 183 kts | 197° |
| 2026-05-07 10:53 | -35.02342 | 150.75744 | 1051 ft | 179 kts | 196° |
| 2026-05-07 10:54 | -35.03526 | 150.75223 | 1062 ft | 184 kts | 198° |
| 2026-05-07 10:54 | -35.04757 | 150.74713 | 831 ft | 188 kts | 195° |
| 2026-05-07 10:54 | -35.05980 | 150.74304 | 903 ft | 177 kts | 195° |
| 2026-05-07 10:54 | -35.07189 | 150.73984 | 1010 ft | 180 kts | 194° |
| 2026-05-07 10:55 | -35.08436 | 150.73675 | 916 ft | 182 kts | 192° |
| 2026-05-07 10:55 | -35.09636 | 150.73351 | 765 ft | 173 kts | 194° |
| 2026-05-07 10:55 | -35.10742 | 150.72974 | 582 ft | 157 kts | 196° |
| 2026-05-07 10:55 | -35.11532 | 150.72462 | 284 ft | 87 kts | 257° |
| 2026-05-07 10:56 | -35.11623 | 150.72102 | 170 ft | 11 kts | 265° |
| 2026-05-07 10:56 | -35.11554 | 150.72100 | 110 ft | 8 kts | 265° |
| 2026-05-07 10:56 | -35.11519 | 150.72079 | 58 ft | 3 kts | 264° |
| 2026-05-07 10:56 | -35.11516 | 150.72062 | 39 ft | 0 kts | 262° |
| 2026-05-07 10:57 | -35.11572 | 150.72007 | 116 ft | 54 kts | 201° |
| 2026-05-07 10:57 | -35.12163 | 150.71421 | 114 ft | 100 kts | 206° |
| 2026-05-07 10:57 | -35.12392 | 150.71179 | 113 ft | 21 kts | 180° |
| 2026-05-07 10:57 | -35.12548 | 150.71289 | 48 ft | 23 kts | 215° |
| 2026-05-07 10:58 | -35.12685 | 150.71273 | 57 ft | 19 kts | 259° |
| 2026-05-07 10:58 | -35.12733 | 150.71169 | 28 ft | 8 kts | 311° |
| 2026-05-07 10:58 | -35.12728 | 150.71160 | 13 ft | 0 kts | 323° |
| 2026-05-07 11:00 | -35.12731 | 150.71166 | 24 ft | 2 kts | 320° |
| 2026-05-07 11:01 | -35.12729 | 150.71209 | 71 ft | 24 kts | 129° |
| 2026-05-07 11:01 | -35.12876 | 150.71436 | 228 ft | 78 kts | 153° |
| 2026-05-07 11:01 | -35.13547 | 150.71016 | 506 ft | 108 kts | 234° |
| 2026-05-07 11:01 | -35.14096 | 150.70293 | 432 ft | 114 kts | 234° |
| 2026-05-07 11:02 | -35.14609 | 150.69781 | 504 ft | 81 kts | 167° |
| 2026-05-07 11:02 | -35.14683 | 150.70511 | 671 ft | 107 kts | 73° |
| 2026-05-07 11:02 | -35.14298 | 150.70677 | 566 ft | 91 kts | 341° |
| 2026-05-07 11:02 | -35.14100 | 150.69970 | 729 ft | 93 kts | 281° |
| 2026-05-07 11:03 | -35.14039 | 150.69138 | 595 ft | 95 kts | 265° |
| 2026-05-07 11:03 | -35.14502 | 150.68849 | 500 ft | 70 kts | 122° |
| 2026-05-07 11:03 | -35.14566 | 150.69483 | 237 ft | 68 kts | 102° |
| 2026-05-07 11:03 | -35.14590 | 150.69822 | 214 ft | 22 kts | 93° |
| 2026-05-07 11:04 | -35.14600 | 150.69971 | 206 ft | 12 kts | 95° |
| 2026-05-07 11:04 | -35.14567 | 150.70013 | 210 ft | 6 kts | 5° |
| 2026-05-07 11:04 | -35.14531 | 150.70016 | 206 ft | 4 kts | 320° |
| 2026-05-07 11:04 | -35.14519 | 150.69983 | 213 ft | 0 kts | 181° |
| 2026-05-07 11:05 | -35.14520 | 150.69984 | 212 ft | 0 kts | 184° |